createdAt,value
2019-02-24T00:00:35.437Z,99.90
2019-02-24T00:03:05.678Z,99.90
2019-02-24T00:05:35.898Z,99.90
2019-02-24T00:08:06.127Z,99.90
2019-02-24T00:10:36.577Z,99.90
2019-02-24T00:13:06.801Z,99.90
2019-02-24T00:15:38.702Z,99.90
2019-02-24T00:18:08.902Z,99.90
2019-02-24T00:20:39.142Z,99.90
2019-02-24T00:23:09.649Z,99.80
2019-02-24T00:25:39.856Z,99.80
2019-02-24T00:28:10.150Z,99.00
2019-02-24T00:30:40.341Z,99.10
2019-02-24T00:33:10.565Z,98.80
2019-02-24T00:35:41.027Z,97.10
2019-02-24T00:38:11.524Z,97.20
2019-02-24T00:40:41.738Z,96.80
2019-02-24T00:43:11.955Z,96.90
2019-02-24T00:45:42.161Z,96.70
2019-02-24T00:48:12.836Z,96.80
2019-02-24T00:50:43.367Z,95.60
2019-02-24T00:53:13.907Z,95.30
2019-02-24T00:55:44.101Z,94.80
2019-02-24T00:58:16.453Z,94.80
2019-02-24T01:00:46.213Z,95.70
2019-02-24T01:03:16.474Z,94.60
2019-02-24T01:05:46.666Z,94.30
2019-02-24T01:08:17.411Z,93.90
2019-02-24T01:10:47.655Z,93.50
2019-02-24T01:13:17.866Z,94.40
2019-02-24T01:15:48.049Z,92.10
2019-02-24T01:18:18.501Z,93.40
2019-02-24T01:20:48.758Z,92.80
2019-02-24T01:23:18.941Z,93.80
2019-02-24T01:25:49.172Z,91.40
2019-02-24T01:28:25.037Z,91.20
2019-02-24T01:30:51.350Z,90.70
2019-02-24T01:33:21.548Z,92.40
2019-02-24T01:35:51.761Z,93.60
2019-02-24T01:38:21.965Z,92.50
2019-02-24T01:40:52.497Z,92.80
2019-02-24T01:43:22.678Z,92.80
2019-02-24T01:45:53.223Z,93.20
2019-02-24T01:48:23.798Z,92.30
2019-02-24T01:50:53.981Z,91.50
2019-02-24T01:53:24.181Z,92.60
2019-02-24T01:55:54.414Z,91.00
2019-02-24T01:58:24.864Z,91.80
2019-02-24T02:00:55.073Z,93.30
2019-02-24T02:03:25.273Z,92.80
2019-02-24T02:05:55.498Z,93.60
2019-02-24T02:08:25.723Z,94.80
2019-02-24T02:10:56.190Z,94.80
2019-02-24T02:13:26.381Z,95.60
2019-02-24T02:15:56.607Z,96.00
2019-02-24T02:18:26.802Z,95.30
2019-02-24T02:20:58.426Z,96.50
2019-02-24T02:23:28.614Z,97.00
2019-02-24T02:25:58.879Z,97.60
2019-02-24T02:28:29.045Z,97.60
2019-02-24T02:30:59.290Z,98.40
2019-02-24T02:33:29.755Z,99.90
2019-02-24T02:36:00.288Z,99.70
2019-02-24T02:38:30.827Z,98.90
2019-02-24T02:41:01.018Z,99.50
2019-02-24T02:43:31.591Z,99.90
2019-02-24T02:46:02.134Z,99.50
2019-02-24T02:48:32.364Z,99.90
2019-02-24T02:51:02.645Z,99.10
2019-02-24T02:53:33.194Z,99.90
2019-02-24T02:56:03.417Z,95.90
2019-02-24T02:58:33.640Z,97.10
2019-02-24T03:01:03.859Z,97.50
2019-02-24T03:03:34.064Z,96.60
2019-02-24T03:06:08.906Z,95.60
2019-02-24T03:08:46.920Z,94.90
2019-02-24T03:11:17.470Z,94.40
2019-02-24T03:13:47.694Z,94.20
2019-02-24T03:16:19.859Z,93.60
2019-02-24T03:18:50.088Z,94.10
2019-02-24T03:21:20.278Z,94.20
2019-02-24T03:23:50.835Z,94.10
2019-02-24T03:26:21.376Z,93.80
2019-02-24T03:28:51.926Z,93.40
2019-02-24T03:31:22.441Z,92.90
2019-02-24T03:33:52.973Z,91.70
2019-02-24T03:36:23.192Z,92.30
2019-02-24T03:38:53.723Z,91.80
2019-02-24T03:41:24.021Z,92.20
2019-02-24T03:43:54.582Z,92.50
2019-02-24T03:46:25.119Z,92.20
2019-02-24T03:48:55.362Z,91.60
2019-02-24T03:51:25.544Z,91.40
2019-02-24T03:53:55.834Z,91.50
2019-02-24T03:56:26.327Z,91.50
2019-02-24T03:58:56.634Z,92.00
2019-02-24T04:01:27.193Z,91.80
2019-02-24T04:03:57.382Z,91.90
2019-02-24T04:06:27.604Z,91.20
2019-02-24T04:08:58.068Z,90.30
2019-02-24T04:11:28.472Z,91.80
2019-02-24T04:13:58.932Z,91.00
2019-02-24T04:16:29.451Z,91.60
2019-02-24T04:18:59.706Z,91.50
2019-02-24T04:21:29.935Z,91.40
2019-02-24T04:24:00.141Z,91.60
2019-02-24T04:26:30.343Z,91.80
2019-02-24T04:29:00.886Z,92.60
2019-02-24T04:31:31.419Z,92.60
2019-02-24T04:34:01.642Z,92.90
2019-02-24T04:36:31.834Z,93.40
2019-02-24T04:39:02.411Z,93.50
2019-02-24T04:41:32.631Z,94.00
2019-02-24T04:44:02.846Z,93.10
2019-02-24T04:46:33.057Z,93.80
2019-02-24T04:49:03.302Z,92.90
2019-02-24T04:51:33.866Z,93.00
2019-02-24T04:54:04.467Z,92.70
2019-02-24T04:56:34.653Z,91.80
2019-02-24T04:59:04.878Z,91.90
2019-02-24T05:01:35.347Z,91.70
2019-02-24T05:04:05.575Z,92.20
2019-02-24T05:06:35.766Z,91.40
2019-02-24T05:09:06.333Z,91.50
2019-02-24T05:11:36.536Z,92.20
2019-02-24T05:14:06.766Z,92.10
2019-02-24T05:16:36.960Z,92.40
2019-02-24T05:19:07.539Z,90.20
2019-02-24T05:21:38.070Z,90.70
2019-02-24T05:24:08.599Z,90.80
2019-02-24T05:26:38.794Z,90.60
2019-02-24T05:29:09.258Z,91.80
2019-02-24T05:31:39.795Z,90.10
2019-02-24T05:34:10.014Z,91.40
2019-02-24T05:36:40.546Z,90.60
2019-02-24T05:39:11.085Z,91.40
2019-02-24T05:41:41.612Z,91.40
2019-02-24T05:44:12.152Z,91.80
2019-02-24T05:46:42.363Z,91.80
2019-02-24T05:49:12.589Z,91.60
2019-02-24T05:51:42.781Z,91.00
2019-02-24T05:54:13.005Z,91.10
2019-02-24T05:56:43.203Z,90.20
2019-02-24T05:59:13.698Z,92.10
2019-02-24T06:01:43.909Z,93.80
2019-02-24T06:04:14.121Z,95.00
2019-02-24T06:06:44.361Z,95.80
2019-02-24T06:09:14.545Z,96.70
2019-02-24T06:11:44.858Z,96.90
2019-02-24T06:14:15.057Z,97.20
2019-02-24T06:16:45.295Z,97.80
2019-02-24T06:19:15.589Z,97.90
2019-02-24T06:21:46.140Z,98.30
2019-02-24T06:24:16.329Z,98.60
2019-02-24T06:26:46.546Z,98.90
2019-02-24T06:29:16.733Z,99.30
2019-02-24T06:31:46.967Z,99.60
2019-02-24T06:34:17.186Z,99.90
2019-02-24T06:36:47.387Z,99.90
2019-02-24T06:39:19.489Z,99.90
2019-02-24T06:41:49.666Z,99.90
2019-02-24T06:44:20.216Z,99.90
2019-02-24T06:46:50.747Z,99.90
2019-02-24T06:49:21.274Z,99.90
2019-02-24T06:51:51.817Z,99.90
2019-02-24T06:54:22.342Z,99.90
2019-02-24T06:56:52.549Z,99.90
2019-02-24T06:59:23.095Z,99.90
2019-02-24T07:01:53.288Z,99.90
2019-02-24T07:04:23.856Z,99.90
2019-02-24T07:06:54.394Z,99.90
2019-02-24T07:09:24.950Z,99.90
2019-02-24T07:11:55.142Z,99.90
2019-02-24T07:14:25.679Z,99.90
2019-02-24T07:16:55.866Z,99.90
2019-02-24T07:19:26.098Z,99.90
2019-02-24T07:21:56.290Z,99.90
2019-02-24T07:24:26.514Z,99.90
2019-02-24T07:26:56.735Z,99.90
2019-02-24T07:29:26.971Z,99.90
2019-02-24T07:31:57.476Z,99.90
2019-02-24T07:34:27.745Z,99.90
2019-02-24T07:36:58.000Z,99.90
2019-02-24T07:39:28.562Z,99.90
2019-02-24T07:41:59.075Z,99.90
2019-02-24T07:44:29.304Z,99.90
2019-02-24T07:46:59.485Z,99.90
2019-02-24T07:49:29.709Z,99.90
2019-02-24T07:52:00.173Z,99.90
2019-02-24T07:54:30.403Z,99.90
2019-02-24T07:57:00.598Z,99.90
2019-02-24T07:59:30.813Z,99.80
2019-02-24T08:02:01.014Z,99.80
2019-02-24T08:04:31.513Z,99.90
2019-02-24T08:07:02.041Z,99.90
2019-02-24T08:09:32.277Z,97.90
2019-02-24T08:12:02.528Z,96.20
2019-02-24T08:14:32.771Z,95.30
2019-02-24T08:17:02.981Z,95.00
2019-02-24T08:19:33.498Z,93.70
2019-02-24T08:22:04.002Z,94.30
2019-02-24T08:24:34.246Z,90.10
2019-02-24T08:27:04.755Z,91.00
2019-02-24T08:29:35.190Z,88.90
2019-02-24T08:32:05.733Z,90.50
2019-02-24T08:34:35.909Z,85.20
2019-02-24T08:37:06.130Z,83.00
2019-02-24T08:39:36.328Z,77.50
2019-02-24T08:42:06.827Z,78.00
2019-02-24T08:44:37.015Z,69.60
2019-02-24T08:47:07.482Z,67.40
2019-02-24T08:49:38.014Z,70.80
2019-02-24T08:52:08.249Z,64.70
2019-02-24T08:54:38.770Z,66.50
2019-02-24T08:57:09.005Z,65.20
2019-02-24T08:59:39.198Z,67.10
2019-02-24T09:02:09.498Z,61.50
2019-02-24T09:04:39.697Z,63.40
2019-02-24T09:07:10.203Z,63.20
2019-02-24T09:09:40.393Z,59.20
2019-02-24T09:12:10.863Z,61.10
2019-02-24T09:14:41.045Z,61.60
2019-02-24T09:17:11.271Z,60.60
2019-02-24T09:19:41.458Z,59.70
2019-02-24T09:22:12.533Z,58.60
2019-02-24T09:24:42.884Z,57.20
2019-02-24T09:27:13.198Z,54.30
2019-02-24T09:29:43.687Z,55.10
2019-02-24T09:32:14.182Z,54.40
2019-02-24T09:34:44.357Z,55.50
2019-02-24T09:37:14.579Z,53.10
2019-02-24T09:39:45.083Z,53.40
2019-02-24T09:42:15.289Z,55.40
2019-02-24T09:44:45.477Z,54.50
2019-02-24T09:47:15.992Z,54.90
2019-02-24T09:49:46.490Z,52.40
2019-02-24T09:52:17.023Z,51.00
2019-02-24T09:54:47.204Z,50.50
2019-02-24T09:57:17.680Z,50.10
2019-02-24T09:59:48.211Z,50.50
2019-02-24T10:02:18.430Z,49.40
2019-02-24T10:04:48.610Z,47.30
2019-02-24T10:07:18.834Z,48.10
2019-02-24T10:09:49.315Z,47.90
2019-02-24T10:12:19.548Z,47.60
2019-02-24T10:14:49.772Z,46.50
2019-02-24T10:17:19.962Z,45.00
2019-02-24T10:19:51.039Z,47.00
2019-02-24T10:22:22.077Z,45.70
2019-02-24T10:24:52.874Z,45.60
2019-02-24T10:27:23.629Z,43.50
2019-02-24T10:29:54.475Z,44.00
2019-02-24T10:32:25.253Z,44.60
2019-02-24T10:34:56.044Z,43.30
2019-02-24T10:37:26.885Z,42.70
2019-02-24T10:39:57.671Z,43.80
2019-02-24T10:42:28.454Z,43.50
2019-02-24T10:44:59.218Z,42.10
2019-02-24T10:47:29.973Z,41.70
2019-02-24T10:50:00.758Z,41.50
2019-02-24T10:52:31.849Z,40.20
2019-02-24T10:55:02.901Z,40.80
2019-02-24T10:57:33.931Z,40.10
2019-02-24T11:00:19.145Z,38.70
2019-02-24T11:02:51.454Z,38.30
2019-02-24T11:05:22.537Z,38.80
2019-02-24T11:07:53.283Z,37.40
2019-02-24T11:10:24.091Z,37.40
2019-02-24T11:12:54.859Z,35.80
2019-02-24T11:15:25.969Z,34.50
2019-02-24T11:17:56.738Z,34.30
2019-02-24T11:20:27.489Z,34.60
2019-02-24T11:22:58.287Z,36.10
2019-02-24T11:25:29.056Z,34.70
2019-02-24T11:28:00.193Z,34.10
2019-02-24T11:30:33.061Z,35.20
2019-02-24T11:33:03.854Z,32.40
2019-02-24T11:35:34.654Z,34.70
2019-02-24T11:38:05.413Z,32.80
2019-02-24T11:40:36.221Z,34.40
2019-02-24T11:43:06.978Z,33.90
2019-02-24T11:45:37.758Z,35.50
2019-02-24T11:48:08.559Z,32.80
2019-02-24T11:50:39.393Z,33.10
2019-02-24T11:53:10.410Z,32.90
2019-02-24T11:55:41.463Z,31.90
2019-02-24T11:58:12.209Z,33.60
2019-02-24T12:00:43.011Z,33.60
2019-02-24T12:03:13.800Z,34.10
2019-02-24T12:05:44.585Z,35.30
2019-02-24T12:08:15.354Z,35.80
2019-02-24T12:10:46.503Z,34.30
2019-02-24T12:13:17.527Z,35.60
2019-02-24T12:15:48.328Z,35.80
2019-02-24T12:18:19.091Z,36.30
2019-02-24T12:20:50.160Z,34.30
2019-02-24T12:23:20.954Z,33.40
2019-02-24T12:25:52.032Z,34.10
2019-02-24T12:28:22.837Z,33.50
2019-02-24T12:30:53.619Z,33.70
2019-02-24T12:33:24.654Z,34.10
2019-02-24T12:35:55.415Z,33.40
2019-02-24T12:38:26.199Z,32.80
2019-02-24T12:40:56.989Z,34.40
2019-02-24T12:43:28.105Z,33.50
2019-02-24T12:45:58.876Z,36.50
2019-02-24T12:48:30.007Z,35.20
2019-02-24T12:51:00.766Z,33.20
2019-02-24T12:53:31.570Z,34.80
2019-02-24T12:56:02.611Z,34.90
2019-02-24T12:58:33.401Z,35.30
2019-02-24T13:01:04.701Z,35.60
2019-02-24T13:03:35.845Z,34.40
2019-02-24T13:06:06.621Z,35.50
2019-02-24T13:08:37.526Z,34.50
2019-02-24T13:11:08.610Z,34.00
2019-02-24T13:13:39.756Z,35.40
2019-02-24T13:16:10.872Z,35.60
2019-02-24T13:18:41.907Z,34.90
2019-02-24T13:21:12.733Z,32.10
2019-02-24T13:23:43.543Z,33.80
2019-02-24T13:26:14.632Z,33.80
2019-02-24T13:28:50.528Z,33.60
2019-02-24T13:31:17.885Z,29.70
2019-02-24T13:33:48.671Z,31.20
2019-02-24T13:36:19.418Z,32.50
2019-02-24T13:38:50.583Z,32.90
2019-02-24T13:41:21.345Z,33.40
2019-02-24T13:43:52.137Z,33.20
2019-02-24T13:46:23.183Z,32.20
2019-02-24T13:48:53.966Z,33.20
2019-02-24T13:51:25.077Z,31.70
2019-02-24T13:53:56.220Z,31.70
2019-02-24T13:56:27.273Z,29.30
2019-02-24T13:58:58.318Z,29.80
2019-02-24T14:01:29.071Z,28.60
2019-02-24T14:03:59.866Z,29.50
2019-02-24T14:06:30.919Z,29.40
2019-02-24T14:09:01.706Z,28.80
2019-02-24T14:11:32.801Z,29.30
2019-02-24T14:14:03.621Z,28.80
2019-02-24T14:16:34.409Z,28.90
2019-02-24T14:19:05.343Z,28.30
2019-02-24T14:21:36.118Z,28.20
2019-02-24T14:24:07.206Z,28.10
2019-02-24T14:26:37.996Z,29.60
2019-02-24T14:29:09.118Z,29.00
2019-02-24T14:31:39.899Z,28.60
2019-02-24T14:34:10.656Z,29.30
2019-02-24T14:36:41.706Z,29.10
2019-02-24T14:39:12.752Z,30.00
2019-02-24T14:41:43.792Z,28.90
2019-02-24T14:44:14.545Z,29.00
2019-02-24T14:46:45.336Z,30.00
2019-02-24T14:49:16.087Z,28.10
2019-02-24T14:51:46.871Z,29.20
2019-02-24T14:54:17.895Z,29.50
2019-02-24T14:56:48.947Z,29.20
2019-02-24T14:59:19.715Z,28.40
2019-02-24T15:01:50.821Z,29.00
2019-02-24T15:04:21.567Z,29.80
2019-02-24T15:06:52.351Z,30.20
2019-02-24T15:09:23.451Z,28.40
2019-02-24T15:11:54.598Z,27.80
2019-02-24T15:14:25.431Z,28.60
2019-02-24T15:16:56.213Z,27.90
2019-02-24T15:19:27.316Z,28.80
2019-02-24T15:21:58.124Z,27.60
2019-02-24T15:24:28.877Z,29.80
2019-02-24T15:26:59.918Z,28.50
2019-02-24T15:29:30.675Z,29.10
2019-02-24T15:32:01.827Z,29.60
2019-02-24T15:34:32.557Z,30.50
2019-02-24T15:37:03.443Z,31.60
2019-02-24T15:39:34.210Z,31.20
2019-02-24T15:42:05.057Z,31.90
2019-02-24T15:44:35.825Z,32.20
2019-02-24T15:47:06.647Z,32.10
2019-02-24T15:49:37.425Z,30.60
2019-02-24T15:52:10.147Z,31.00
2019-02-24T15:54:41.079Z,31.70
2019-02-24T15:57:12.143Z,32.00
2019-02-24T15:59:42.950Z,32.10
2019-02-24T16:02:14.021Z,32.50
2019-02-24T16:04:45.599Z,32.20
2019-02-24T16:07:16.359Z,32.30
2019-02-24T16:09:47.463Z,32.30
2019-02-24T16:12:18.221Z,32.60
2019-02-24T16:14:49.020Z,32.80
2019-02-24T16:17:20.083Z,33.10
2019-02-24T16:19:51.134Z,32.70
2019-02-24T16:22:21.890Z,33.70
2019-02-24T16:24:53.011Z,34.40
2019-02-24T16:27:24.049Z,34.80
2019-02-24T16:29:54.843Z,35.20
2019-02-24T16:32:25.606Z,35.40
2019-02-24T16:34:56.413Z,35.70
2019-02-24T16:37:27.161Z,36.10
2019-02-24T16:39:58.251Z,36.40
2019-02-24T16:42:29.017Z,36.30
2019-02-24T16:45:00.279Z,36.60
2019-02-24T16:47:31.382Z,37.20
2019-02-24T16:50:02.172Z,37.20
2019-02-24T16:52:32.935Z,37.70
2019-02-24T16:55:04.702Z,37.90
2019-02-24T16:57:35.542Z,38.00
2019-02-24T17:00:12.191Z,38.60
2019-02-24T17:02:43.123Z,39.10
2019-02-24T17:05:14.350Z,39.10
2019-02-24T17:07:45.673Z,39.60
2019-02-24T17:10:19.363Z,39.60
2019-02-24T17:12:50.153Z,39.80
2019-02-24T17:15:21.358Z,40.10
2019-02-24T17:17:52.403Z,39.50
2019-02-24T17:20:25.802Z,39.70
2019-02-24T17:22:56.566Z,39.60
2019-02-24T17:25:27.386Z,39.80
2019-02-24T17:27:58.413Z,40.90
2019-02-24T17:30:29.289Z,42.60
2019-02-24T17:33:00.041Z,43.40
2019-02-24T17:35:31.239Z,45.50
2019-02-24T17:38:02.031Z,45.90
2019-02-24T17:40:33.122Z,46.00
2019-02-24T17:43:03.895Z,46.00
2019-02-24T17:45:34.691Z,46.00
2019-02-24T17:48:05.474Z,46.40
2019-02-24T17:50:36.262Z,46.60
2019-02-24T17:53:07.026Z,46.80
2019-02-24T17:55:37.814Z,46.60
2019-02-24T17:58:08.582Z,46.60
2019-02-24T18:00:49.984Z,48.00
2019-02-24T18:03:21.013Z,49.60
2019-02-24T18:05:51.802Z,50.90
2019-02-24T18:08:28.224Z,52.50
2019-02-24T18:10:55.147Z,53.60
2019-02-24T18:13:26.210Z,55.00
2019-02-24T18:15:57.016Z,57.40
2019-02-24T18:18:28.113Z,56.90
2019-02-24T18:20:58.900Z,56.30
2019-02-24T18:23:29.657Z,56.40
2019-02-24T18:26:00.455Z,56.10
2019-02-24T18:28:31.213Z,55.70
2019-02-24T18:31:02.297Z,55.50
2019-02-24T18:33:33.050Z,55.50
2019-02-24T18:36:04.174Z,55.60
2019-02-24T18:38:35.248Z,56.30
2019-02-24T18:41:06.083Z,55.90
2019-02-24T18:43:36.887Z,56.00
2019-02-24T18:46:07.942Z,57.40
2019-02-24T18:48:39.077Z,57.30
2019-02-24T18:51:09.869Z,57.60
2019-02-24T18:53:40.982Z,57.70
2019-02-24T18:56:11.770Z,56.70
2019-02-24T18:58:42.846Z,56.90
2019-02-24T19:01:13.637Z,58.40
2019-02-24T19:03:44.415Z,60.30
2019-02-24T19:06:15.211Z,61.10
2019-02-24T19:08:45.989Z,63.10
2019-02-24T19:11:17.050Z,61.70
2019-02-24T19:13:47.854Z,64.10
2019-02-24T19:16:18.940Z,60.80
2019-02-24T19:18:49.717Z,60.20
2019-02-24T19:21:20.485Z,62.20
2019-02-24T19:23:51.272Z,62.20
2019-02-24T19:26:22.288Z,61.30
2019-02-24T19:28:53.070Z,64.40
2019-02-24T19:31:23.825Z,66.90
2019-02-24T19:33:54.906Z,70.80
2019-02-24T19:36:25.695Z,70.40
2019-02-24T19:38:56.477Z,69.00
2019-02-24T19:41:27.230Z,68.50
2019-02-24T19:43:58.022Z,67.70
2019-02-24T19:46:28.791Z,67.70
2019-02-24T19:48:59.580Z,68.30
2019-02-24T19:51:30.337Z,66.20
2019-02-24T19:54:01.419Z,64.90
2019-02-24T19:56:32.191Z,67.10
2019-02-24T19:59:03.149Z,72.70
2019-02-24T20:01:33.963Z,70.70
2019-02-24T20:04:05.074Z,71.10
2019-02-24T20:06:35.834Z,73.40
2019-02-24T20:09:07.000Z,76.30
2019-02-24T20:11:37.831Z,76.50
2019-02-24T20:14:08.360Z,79.70
2019-02-24T20:16:39.394Z,84.80
2019-02-24T20:19:09.618Z,81.40
2019-02-24T20:21:39.814Z,82.20
2019-02-24T20:24:10.605Z,83.90
2019-02-24T20:26:41.614Z,83.20
2019-02-24T20:29:12.397Z,79.20
2019-02-24T20:31:42.598Z,77.50
2019-02-24T20:34:12.821Z,77.50
2019-02-24T20:36:43.341Z,77.00
2019-02-24T20:39:13.863Z,81.30
2019-02-24T20:41:44.073Z,75.60
2019-02-24T20:44:14.275Z,75.00
2019-02-24T20:46:44.495Z,78.80
2019-02-24T20:49:14.974Z,78.90
2019-02-24T20:51:45.235Z,82.00
2019-02-24T20:54:15.427Z,85.30
2019-02-24T20:56:45.694Z,83.60
2019-02-24T20:59:16.278Z,83.90
2019-02-24T21:01:46.835Z,86.00
2019-02-24T21:04:17.035Z,88.90
2019-02-24T21:06:47.270Z,87.50
2019-02-24T21:09:17.484Z,85.30
2019-02-24T21:11:48.045Z,85.50
2019-02-24T21:14:18.237Z,87.00
2019-02-24T21:16:48.779Z,86.70
2019-02-24T21:19:19.051Z,86.50
2019-02-24T21:21:49.273Z,87.10
2019-02-24T21:24:19.466Z,88.20
2019-02-24T21:26:49.685Z,90.30
2019-02-24T21:29:20.211Z,91.20
2019-02-24T21:31:50.741Z,91.20
2019-02-24T21:34:21.304Z,90.80
2019-02-24T21:36:51.501Z,90.40
2019-02-24T21:39:22.040Z,89.70
2019-02-24T21:41:52.262Z,89.40
2019-02-24T21:44:22.454Z,89.80
2019-02-24T21:46:52.682Z,91.80
2019-02-24T21:49:22.935Z,92.60
2019-02-24T21:51:53.156Z,93.30
2019-02-24T21:54:23.385Z,93.10
2019-02-24T21:56:53.923Z,93.40
2019-02-24T21:59:24.126Z,91.80
2019-02-24T22:01:54.312Z,93.10
2019-02-24T22:04:24.574Z,92.50
2019-02-24T22:06:54.755Z,93.40
2019-02-24T22:09:24.975Z,94.40
2019-02-24T22:11:55.478Z,94.50
2019-02-24T22:14:25.794Z,95.20
2019-02-24T22:16:55.978Z,95.00
2019-02-24T22:19:26.230Z,94.00
2019-02-24T22:21:56.426Z,94.50
2019-02-24T22:24:26.910Z,96.00
2019-02-24T22:26:57.102Z,96.20
2019-02-24T22:29:27.662Z,96.30
2019-02-24T22:31:57.852Z,96.50
2019-02-24T22:34:28.074Z,96.50
2019-02-24T22:36:58.260Z,96.40
2019-02-24T22:39:28.767Z,95.80
2019-02-24T22:41:59.300Z,96.30
2019-02-24T22:44:29.925Z,96.90
2019-02-24T22:47:00.287Z,96.60
2019-02-24T22:49:30.799Z,96.20
2019-02-24T22:52:00.981Z,96.50
2019-02-24T22:54:31.189Z,97.00
2019-02-24T22:57:01.680Z,97.60
2019-02-24T22:59:31.906Z,98.10
2019-02-24T23:02:02.540Z,98.40
2019-02-24T23:04:32.745Z,98.20
2019-02-24T23:07:02.929Z,98.10
2019-02-24T23:09:33.228Z,98.20
2019-02-24T23:12:03.488Z,97.50
2019-02-24T23:14:34.067Z,97.50
2019-02-24T23:17:04.414Z,96.90
2019-02-24T23:19:34.642Z,97.10
2019-02-24T23:22:04.829Z,97.40
2019-02-24T23:24:35.571Z,97.70
2019-02-24T23:27:05.859Z,98.50
2019-02-24T23:29:36.052Z,98.80
2019-02-24T23:32:06.257Z,99.30
2019-02-24T23:34:36.460Z,99.50
2019-02-24T23:37:07.020Z,98.60
2019-02-24T23:39:37.244Z,98.40
2019-02-24T23:42:07.453Z,98.00
2019-02-24T23:44:37.649Z,97.90
2019-02-24T23:47:08.128Z,97.90
2019-02-24T23:49:38.310Z,98.20
2019-02-24T23:52:08.535Z,98.40
2019-02-24T23:54:38.717Z,99.00
2019-02-24T23:57:09.226Z,99.30
2019-02-24T23:59:39.439Z,99.50
